Terminal Aerodrome Forecast
Issued by NWS

Home | Current Version | Previous Version | Text Only | Print | Product List | Glossary Off
Versions: 1 2 3 4 5 6 7 8 9 10 11 12 13 14 15 16 17 18 19 20

000
FTUS42 KMHX 140531
TAFPGV
TAF
KPGV 140531Z 1406/1506 00000KT 6SM BR OVC007
     FM141000 00000KT 2SM BR OVC003
     FM141400 00000KT 6SM BR OVC010
     FM141600 VRB03KT P6SM OVC025
     FM141800 00000KT P6SM -SHRA VCTS BKN025CB
     FM150000 00000KT P6SM OVC035
      AMD LTD TO CLD VIS AND WIND=

USA.gov is the U.S. government's official web portal to all federal, state and local government web resources and services.